Terminal Aerodrome Forecast
Issued by NWS

Home | Current Version | Previous Version | Text Only | Print | Product List | Glossary On
Versions: 1 2 3 4 5 6 7 8 9 10 11 12 13 14 15 16 17 18 19 20 21 22
000
FTUS42 KJAX 181437 AAD
TAFVQQ
TAF AMD
KVQQ 181437Z 1815/1912 25005KT P6SM VCTS BKN050CB
      TEMPO 1815/1819 VRB15G25KT 2SM TSRA OVC025CB
     FM182200 22004KT P6SM SCT050 SCT100 BKN200=

USA.gov is the U.S. government's official web portal to all federal, state and local government web resources and services.